createdAt,value
2022-10-08T00:01:01.117Z,7.70
2022-10-08T00:03:30.519Z,7.70
2022-10-08T00:06:03.617Z,7.80
2022-10-08T00:08:32.615Z,7.80
2022-10-08T00:11:01.934Z,7.80
2022-10-08T00:13:43.589Z,7.80
2022-10-08T00:16:25.638Z,7.80
2022-10-08T00:18:54.351Z,7.80
2022-10-08T00:21:24.468Z,7.80
2022-10-08T00:23:53.384Z,7.80
2022-10-08T00:26:24.616Z,7.80
2022-10-08T00:28:54.326Z,7.80
2022-10-08T00:31:31.064Z,7.80
2022-10-08T00:33:59.990Z,7.80
2022-10-08T00:36:29.420Z,7.70
2022-10-08T00:39:02.155Z,7.70
2022-10-08T00:41:31.155Z,7.70
2022-10-08T00:44:01.302Z,7.70
2022-10-08T00:46:37.504Z,7.60
2022-10-08T00:49:18.503Z,7.60
2022-10-08T00:51:50.663Z,7.60
2022-10-08T00:54:19.396Z,7.60
2022-10-08T00:56:49.183Z,7.60
2022-10-08T00:59:17.218Z,7.60
2022-10-08T01:01:44.249Z,7.60
2022-10-08T01:04:13.706Z,7.60
2022-10-08T01:06:58.162Z,7.60
2022-10-08T01:09:39.099Z,7.60
2022-10-08T01:12:11.349Z,7.60
2022-10-08T01:14:55.386Z,7.70
2022-10-08T01:17:40.318Z,7.70
2022-10-08T01:20:29.819Z,7.80
2022-10-08T01:23:11.063Z,7.80
2022-10-08T01:25:56.190Z,7.80
2022-10-08T01:28:42.239Z,7.70
2022-10-08T01:31:19.406Z,7.70
2022-10-08T01:34:02.060Z,7.70
2022-10-08T01:36:35.446Z,7.70
2022-10-08T01:39:10.374Z,7.70
2022-10-08T01:41:36.907Z,7.70
2022-10-08T01:44:19.846Z,7.70
2022-10-08T01:46:47.265Z,7.70
2022-10-08T01:49:18.051Z,7.60
2022-10-08T01:51:52.594Z,7.60
2022-10-08T01:54:21.607Z,7.60
2022-10-08T01:56:49.827Z,7.70
2022-10-08T01:59:23.960Z,7.70
2022-10-08T02:01:59.759Z,7.70
2022-10-08T02:04:34.431Z,7.70
2022-10-08T02:07:08.658Z,7.70
2022-10-08T02:09:42.251Z,7.60
2022-10-08T02:12:09.701Z,7.60
2022-10-08T02:14:40.738Z,7.60
2022-10-08T02:17:30.259Z,7.60
2022-10-08T02:20:03.607Z,7.70
2022-10-08T02:22:39.955Z,7.70
2022-10-08T02:25:47.951Z,7.60
2022-10-08T02:28:31.569Z,7.60
2022-10-08T02:31:14.627Z,7.60
2022-10-08T02:33:52.252Z,7.60
2022-10-08T02:36:24.943Z,7.50
2022-10-08T02:38:58.334Z,7.50
2022-10-08T02:41:34.827Z,7.50
2022-10-08T02:44:06.816Z,7.50
2022-10-08T02:46:37.507Z,7.50
2022-10-08T02:49:28.734Z,7.50
2022-10-08T02:52:01.862Z,7.50
2022-10-08T02:54:34.603Z,7.60
2022-10-08T02:57:13.461Z,7.60
2022-10-08T02:59:40.642Z,7.60
2022-10-08T03:02:09.066Z,7.60
2022-10-08T03:04:43.854Z,7.70
2022-10-08T03:07:13.405Z,7.70
2022-10-08T03:09:44.790Z,7.70
2022-10-08T03:12:11.804Z,7.70
2022-10-08T03:14:45.441Z,7.70
2022-10-08T03:17:16.650Z,7.70
2022-10-08T03:19:43.190Z,7.80
2022-10-08T03:22:10.374Z,7.80
2022-10-08T03:24:37.025Z,7.90
2022-10-08T03:27:04.858Z,7.90
2022-10-08T03:29:31.481Z,7.90
2022-10-08T03:31:58.399Z,8.00
2022-10-08T03:34:25.854Z,8.00
2022-10-08T03:36:52.404Z,8.10
2022-10-08T03:39:19.508Z,8.10
2022-10-08T03:41:46.463Z,8.10
2022-10-08T03:44:13.540Z,8.20
2022-10-08T03:46:40.233Z,8.20
2022-10-08T03:49:07.304Z,8.30
2022-10-08T03:51:34.324Z,8.30
2022-10-08T03:54:00.897Z,8.30
2022-10-08T03:56:27.946Z,8.40
2022-10-08T03:58:56.918Z,8.40
2022-10-08T04:01:25.046Z,8.40
2022-10-08T04:03:51.692Z,8.40
2022-10-08T04:06:19.014Z,8.30
2022-10-08T04:08:45.676Z,8.30
2022-10-08T04:11:14.911Z,8.30
2022-10-08T04:13:42.162Z,8.30
2022-10-08T04:16:13.540Z,8.30
2022-10-08T04:18:41.667Z,8.30
2022-10-08T04:21:11.477Z,8.30
2022-10-08T04:23:39.854Z,8.30
2022-10-08T04:26:08.380Z,8.30
2022-10-08T04:28:40.244Z,8.30
2022-10-08T04:31:10.922Z,8.30
2022-10-08T04:33:38.375Z,8.40
2022-10-08T04:36:19.843Z,8.40
2022-10-08T04:38:47.206Z,8.50
2022-10-08T04:41:23.533Z,8.50
2022-10-08T04:43:51.818Z,8.60
2022-10-08T04:46:20.464Z,8.70
2022-10-08T04:48:49.369Z,8.70
2022-10-08T04:51:17.530Z,8.80
2022-10-08T04:53:44.883Z,8.80
2022-10-08T04:56:17.248Z,8.90
2022-10-08T04:58:45.175Z,8.80
2022-10-08T05:01:14.104Z,8.90
2022-10-08T05:03:45.149Z,8.90
2022-10-08T05:06:12.633Z,8.90
2022-10-08T05:08:39.729Z,8.90
2022-10-08T05:11:06.393Z,9.00
2022-10-08T05:13:33.461Z,9.00
2022-10-08T05:16:09.773Z,9.10
2022-10-08T05:18:37.543Z,9.10
2022-10-08T05:21:12.785Z,9.20
2022-10-08T05:23:39.664Z,9.20
2022-10-08T05:26:17.070Z,9.30
2022-10-08T05:28:47.035Z,9.30
2022-10-08T05:31:17.880Z,9.40
2022-10-08T05:33:44.903Z,9.50
2022-10-08T05:36:24.591Z,9.50
2022-10-08T05:38:51.470Z,9.60
2022-10-08T05:41:24.245Z,9.60
2022-10-08T05:43:51.216Z,9.60
2022-10-08T05:46:18.863Z,9.70
2022-10-08T05:48:46.243Z,9.70
2022-10-08T05:51:15.951Z,9.70
2022-10-08T05:53:44.895Z,9.70
2022-10-08T05:56:13.176Z,9.80
2022-10-08T05:58:41.228Z,9.80
2022-10-08T06:01:20.727Z,9.80
2022-10-08T06:03:52.136Z,9.80
2022-10-08T06:06:19.381Z,9.90
2022-10-08T06:08:46.818Z,9.90
2022-10-08T06:11:13.398Z,9.90
2022-10-08T06:13:40.396Z,10.00
2022-10-08T06:16:12.022Z,10.00
2022-10-08T06:18:41.136Z,10.00
2022-10-08T06:21:11.004Z,10.10
2022-10-08T06:23:39.862Z,10.10
2022-10-08T06:26:09.959Z,10.20
2022-10-08T06:28:38.523Z,10.30
2022-10-08T06:31:06.920Z,10.30
2022-10-08T06:33:34.374Z,10.30
2022-10-08T06:36:25.454Z,10.40
2022-10-08T06:39:00.892Z,10.50
2022-10-08T06:41:30.188Z,10.50
2022-10-08T06:43:57.281Z,10.60
2022-10-08T06:46:24.306Z,10.60
2022-10-08T06:48:50.883Z,10.70
2022-10-08T06:51:19.518Z,10.80
2022-10-08T06:53:52.785Z,10.90
2022-10-08T06:56:19.349Z,11.00
2022-10-08T06:58:47.844Z,11.10
2022-10-08T07:01:16.430Z,11.20
2022-10-08T07:03:43.876Z,11.40
2022-10-08T07:06:12.416Z,11.50
2022-10-08T07:08:39.401Z,11.60
2022-10-08T07:11:12.258Z,11.70
2022-10-08T07:13:40.776Z,11.80
2022-10-08T07:16:21.094Z,11.90
2022-10-08T07:18:49.479Z,12.00
2022-10-08T07:21:18.209Z,12.10
2022-10-08T07:23:45.162Z,12.10
2022-10-08T07:26:20.807Z,12.10
2022-10-08T07:28:53.392Z,12.20
2022-10-08T07:31:28.380Z,12.20
2022-10-08T07:33:56.148Z,12.20
2022-10-08T07:36:23.860Z,12.20
2022-10-08T07:38:58.643Z,12.30
2022-10-08T07:41:26.765Z,12.30
2022-10-08T07:43:55.298Z,12.40
2022-10-08T07:46:22.384Z,12.40
2022-10-08T07:48:51.058Z,12.40
2022-10-08T07:51:19.817Z,12.40
2022-10-08T07:53:47.051Z,12.40
2022-10-08T07:56:16.576Z,12.40
2022-10-08T07:58:43.471Z,12.50
2022-10-08T08:01:16.309Z,12.50
2022-10-08T08:03:43.378Z,12.50
2022-10-08T08:06:12.449Z,12.40
2022-10-08T08:08:41.534Z,12.40
2022-10-08T08:11:09.846Z,12.40
2022-10-08T08:13:38.548Z,12.40
2022-10-08T08:16:21.096Z,12.50
2022-10-08T08:18:50.125Z,12.50
2022-10-08T08:21:21.164Z,12.50
2022-10-08T08:23:50.882Z,12.60
2022-10-08T08:26:19.011Z,12.60
2022-10-08T08:28:49.863Z,12.70
2022-10-08T08:31:19.344Z,12.70
2022-10-08T08:33:51.962Z,12.70
2022-10-08T08:36:20.257Z,12.70
2022-10-08T08:38:47.252Z,12.80
2022-10-08T08:41:49.627Z,12.90
2022-10-08T08:44:23.848Z,13.00
2022-10-08T08:47:04.103Z,13.10
2022-10-08T08:49:53.060Z,13.20
2022-10-08T08:52:23.858Z,13.20
2022-10-08T08:54:53.615Z,13.30
2022-10-08T08:57:31.359Z,13.40
2022-10-08T09:00:04.785Z,13.40
2022-10-08T09:02:56.984Z,13.50
2022-10-08T09:05:25.620Z,13.50
2022-10-08T09:08:05.195Z,13.60
2022-10-08T09:10:46.046Z,13.70
2022-10-08T09:13:21.506Z,13.70
2022-10-08T09:15:48.186Z,13.80
2022-10-08T09:18:16.318Z,13.80
2022-10-08T09:20:44.071Z,14.00
2022-10-08T09:23:37.636Z,14.10
2022-10-08T09:26:10.804Z,14.30
2022-10-08T09:28:49.515Z,14.50
2022-10-08T09:31:26.865Z,14.60
2022-10-08T09:33:57.858Z,14.70
2022-10-08T09:36:30.523Z,14.80
2022-10-08T09:39:03.649Z,14.90
2022-10-08T09:41:30.454Z,14.90
2022-10-08T09:44:22.456Z,14.90
2022-10-08T09:47:03.557Z,15.00
2022-10-08T09:49:31.475Z,15.10
2022-10-08T09:52:06.919Z,15.20
2022-10-08T09:54:41.454Z,15.30
2022-10-08T09:57:08.709Z,15.40
2022-10-08T09:59:41.337Z,15.50
2022-10-08T10:02:37.420Z,15.50
2022-10-08T10:05:06.976Z,15.50
2022-10-08T10:07:43.702Z,15.60
2022-10-08T10:10:30.769Z,15.70
2022-10-08T10:13:06.788Z,15.80
2022-10-08T10:15:46.960Z,15.80
2022-10-08T10:18:17.712Z,15.70
2022-10-08T10:20:51.655Z,15.60
2022-10-08T10:23:34.290Z,15.60
2022-10-08T10:26:22.425Z,15.60
2022-10-08T10:29:09.722Z,15.60
2022-10-08T10:31:55.030Z,15.60
2022-10-08T10:34:24.443Z,15.60
2022-10-08T10:36:58.451Z,15.70
2022-10-08T10:39:36.106Z,15.80
2022-10-08T10:42:36.469Z,15.80
2022-10-08T10:45:07.947Z,15.70
2022-10-08T10:47:34.523Z,15.60
2022-10-08T10:50:02.812Z,15.60
2022-10-08T10:53:07.167Z,15.60
2022-10-08T10:55:56.358Z,15.60
2022-10-08T10:58:56.234Z,15.60
2022-10-08T11:01:43.725Z,15.50
2022-10-08T11:04:34.340Z,15.40
2022-10-08T11:07:15.624Z,15.30
2022-10-08T11:09:47.643Z,15.20
2022-10-08T11:12:29.824Z,15.10
2022-10-08T11:15:19.881Z,15.20
2022-10-08T11:18:24.705Z,15.20
2022-10-08T11:21:13.510Z,15.40
2022-10-08T11:24:21.446Z,15.60
2022-10-08T11:26:55.673Z,15.90
2022-10-08T11:29:38.026Z,16.40
2022-10-08T11:32:11.908Z,16.80
2022-10-08T11:34:42.761Z,17.00
2022-10-08T11:37:18.529Z,16.80
2022-10-08T11:39:51.308Z,16.60
2022-10-08T11:42:43.963Z,16.10
2022-10-08T11:45:23.311Z,15.50
2022-10-08T11:47:55.661Z,14.70
2022-10-08T11:50:37.260Z,13.90
2022-10-08T11:53:10.460Z,13.20
2022-10-08T11:55:38.068Z,12.80
2022-10-08T11:58:08.988Z,12.50
2022-10-08T12:00:44.951Z,12.30
2022-10-08T12:03:30.695Z,12.10
2022-10-08T12:06:00.585Z,11.90
2022-10-08T12:08:57.016Z,11.80
2022-10-08T12:11:30.040Z,11.80
2022-10-08T12:14:26.406Z,11.70
2022-10-08T12:16:56.199Z,11.70
2022-10-08T12:20:01.811Z,11.70
2022-10-08T12:22:28.704Z,11.70
2022-10-08T12:24:59.310Z,11.80
2022-10-08T12:27:32.385Z,11.80
2022-10-08T12:30:12.900Z,11.90
2022-10-08T12:32:39.885Z,12.00
2022-10-08T12:35:38.297Z,12.10
2022-10-08T12:38:16.227Z,12.20
2022-10-08T12:41:06.793Z,12.20
2022-10-08T12:44:04.863Z,12.30
2022-10-08T12:46:38.031Z,12.40
2022-10-08T12:49:32.366Z,12.50
2022-10-08T12:52:12.578Z,12.60
2022-10-08T12:54:51.578Z,12.70
2022-10-08T12:57:27.355Z,12.80
2022-10-08T12:59:54.660Z,12.80
2022-10-08T13:02:28.861Z,12.90
2022-10-08T13:04:55.864Z,13.00
2022-10-08T13:07:28.831Z,13.10
2022-10-08T13:10:01.815Z,13.20
2022-10-08T13:12:28.639Z,13.30
2022-10-08T13:15:06.155Z,13.50
2022-10-08T13:17:35.399Z,13.70
2022-10-08T13:20:11.742Z,14.00
2022-10-08T13:22:38.736Z,14.20
2022-10-08T13:25:06.458Z,14.40
2022-10-08T13:27:34.045Z,14.50
2022-10-08T13:30:22.878Z,14.60
2022-10-08T13:32:49.414Z,14.70
2022-10-08T13:35:22.172Z,14.70
2022-10-08T13:37:53.359Z,14.70
2022-10-08T13:40:22.692Z,14.70
2022-10-08T13:42:58.759Z,14.60
2022-10-08T13:45:30.426Z,14.40
2022-10-08T13:47:57.858Z,14.30
2022-10-08T13:50:24.419Z,14.20
2022-10-08T13:52:59.125Z,14.10
2022-10-08T13:55:28.878Z,13.90
2022-10-08T13:57:56.873Z,13.70
2022-10-08T14:00:24.106Z,13.60
2022-10-08T14:02:53.646Z,13.40
2022-10-08T14:05:22.440Z,13.30
2022-10-08T14:08:02.798Z,13.10
2022-10-08T14:10:30.037Z,13.00
2022-10-08T14:12:56.599Z,12.90
2022-10-08T14:15:24.779Z,12.80
2022-10-08T14:17:53.250Z,12.80
2022-10-08T14:20:20.145Z,12.80
2022-10-08T14:22:47.128Z,12.80
2022-10-08T14:25:21.130Z,12.90
2022-10-08T14:27:48.459Z,13.00
2022-10-08T14:30:16.351Z,13.20
2022-10-08T14:32:43.929Z,13.30
2022-10-08T14:35:11.910Z,13.30
2022-10-08T14:37:39.023Z,13.30
2022-10-08T14:40:08.387Z,13.30
2022-10-08T14:42:35.030Z,13.30
2022-10-08T14:45:01.686Z,13.30
2022-10-08T14:47:28.262Z,13.30
2022-10-08T14:49:54.798Z,13.50
2022-10-08T14:52:21.948Z,13.60
2022-10-08T14:54:48.480Z,13.80
2022-10-08T14:57:15.451Z,13.80
2022-10-08T14:59:42.491Z,13.90
2022-10-08T15:02:11.176Z,13.90
2022-10-08T15:04:38.466Z,13.80
2022-10-08T15:07:05.483Z,13.80
2022-10-08T15:09:32.774Z,13.70
2022-10-08T15:11:59.288Z,13.60
2022-10-08T15:14:26.303Z,13.60
2022-10-08T15:16:53.361Z,13.60
2022-10-08T15:19:23.741Z,13.60
2022-10-08T15:21:51.324Z,13.60
2022-10-08T15:24:18.671Z,13.60
2022-10-08T15:26:45.227Z,13.60
2022-10-08T15:29:12.251Z,13.40
2022-10-08T15:31:39.386Z,13.10
2022-10-08T15:34:06.063Z,12.80
2022-10-08T15:36:36.776Z,11.90
2022-10-08T15:39:11.856Z,12.20
2022-10-08T15:41:41.903Z,12.00
2022-10-08T15:44:20.606Z,11.90
2022-10-08T15:46:49.239Z,11.70
2022-10-08T15:49:16.195Z,11.50
2022-10-08T15:54:30.791Z,11.20
2022-10-08T15:56:57.374Z,11.00
2022-10-08T15:59:24.520Z,10.90
2022-10-08T16:01:51.043Z,10.80
2022-10-08T16:04:18.076Z,10.70
2022-10-08T16:06:45.392Z,10.60
2022-10-08T16:09:13.054Z,10.50
2022-10-08T16:11:39.610Z,10.40
2022-10-08T16:14:24.112Z,10.40
2022-10-08T16:16:52.405Z,10.30
2022-10-08T16:19:21.700Z,10.20
2022-10-08T16:21:49.880Z,10.20
2022-10-08T16:24:16.976Z,10.10
2022-10-08T16:26:44.420Z,10.00
2022-10-08T16:29:13.447Z,10.00
2022-10-08T16:31:42.184Z,9.90
2022-10-08T16:34:14.030Z,9.80
2022-10-08T16:36:40.973Z,9.80
2022-10-08T16:39:10.311Z,9.80
2022-10-08T16:41:37.860Z,9.70
2022-10-08T16:44:14.402Z,9.70
2022-10-08T16:46:43.803Z,9.60
2022-10-08T16:49:25.358Z,9.50
2022-10-08T16:52:04.982Z,9.50
2022-10-08T16:54:32.638Z,9.40
2022-10-08T16:56:59.259Z,9.40
2022-10-08T16:59:27.468Z,9.30
2022-10-08T17:01:56.338Z,9.30
2022-10-08T17:04:24.477Z,9.30
2022-10-08T17:06:51.812Z,9.30
2022-10-08T17:09:19.028Z,9.20
2022-10-08T17:11:48.367Z,9.20
2022-10-08T17:14:15.020Z,9.20
2022-10-08T17:16:43.431Z,9.20
2022-10-08T17:19:10.249Z,9.10
2022-10-08T17:21:36.963Z,9.00
2022-10-08T17:24:04.466Z,9.00
2022-10-08T17:26:31.763Z,8.90
2022-10-08T17:29:04.553Z,8.90
2022-10-08T17:31:31.734Z,8.80
2022-10-08T17:33:59.585Z,8.80
2022-10-08T17:36:31.415Z,8.70
2022-10-08T17:38:59.950Z,8.70
2022-10-08T17:41:36.798Z,8.60
2022-10-08T17:44:08.187Z,8.60
2022-10-08T17:46:40.403Z,8.60
2022-10-08T17:49:08.141Z,8.50
2022-10-08T17:51:34.836Z,8.50
2022-10-08T17:54:04.113Z,8.40
2022-10-08T17:56:31.690Z,8.40
2022-10-08T17:59:00.768Z,8.30
2022-10-08T18:01:30.017Z,8.30
2022-10-08T18:04:00.870Z,8.20
2022-10-08T18:06:29.300Z,8.20
2022-10-08T18:08:57.782Z,8.20
2022-10-08T18:11:25.579Z,8.10
2022-10-08T18:13:52.961Z,8.00
2022-10-08T18:16:21.263Z,8.00
2022-10-08T18:18:49.016Z,7.90
2022-10-08T18:21:17.407Z,7.90
2022-10-08T18:23:46.980Z,7.80
2022-10-08T18:26:21.978Z,7.80
2022-10-08T18:28:57.200Z,7.80
2022-10-08T18:31:27.214Z,7.70
2022-10-08T18:33:59.861Z,7.70
2022-10-08T18:36:31.614Z,7.70
2022-10-08T18:39:00.901Z,7.70
2022-10-08T18:41:30.007Z,7.70
2022-10-08T18:43:57.212Z,7.70
2022-10-08T18:46:24.500Z,7.70
2022-10-08T18:48:51.400Z,7.60
2022-10-08T18:51:23.676Z,7.70
2022-10-08T18:53:51.831Z,7.70
2022-10-08T18:56:22.947Z,7.70
2022-10-08T18:58:53.716Z,7.70
2022-10-08T19:01:23.357Z,7.70
2022-10-08T19:03:55.285Z,7.70
2022-10-08T19:06:24.495Z,7.70
2022-10-08T19:08:51.563Z,7.70
2022-10-08T19:11:23.257Z,7.70
2022-10-08T19:13:52.659Z,7.70
2022-10-08T19:16:19.839Z,7.70
2022-10-08T19:18:58.439Z,7.70
2022-10-08T19:21:26.122Z,7.60
2022-10-08T19:23:53.415Z,7.60
2022-10-08T19:26:20.394Z,7.60
2022-10-08T19:28:49.808Z,7.60
2022-10-08T19:31:28.461Z,7.60
2022-10-08T19:34:01.266Z,8.30
2022-10-08T19:36:30.350Z,7.50
2022-10-08T19:38:59.749Z,7.40
2022-10-08T19:41:27.319Z,7.40
2022-10-08T19:43:55.592Z,7.40
2022-10-08T19:46:23.641Z,7.30
2022-10-08T19:48:52.829Z,7.30
2022-10-08T19:51:19.795Z,7.30
2022-10-08T19:53:47.458Z,7.30
2022-10-08T19:56:15.110Z,7.30
2022-10-08T19:58:47.611Z,7.20
2022-10-08T20:01:19.257Z,7.20
2022-10-08T20:03:47.257Z,7.20
2022-10-08T20:06:24.043Z,7.10
2022-10-08T20:08:54.871Z,7.10
2022-10-08T20:11:22.635Z,7.10
2022-10-08T20:13:50.736Z,7.10
2022-10-08T20:16:32.354Z,7.10
2022-10-08T20:19:04.592Z,7.10
2022-10-08T20:21:35.589Z,7.20
2022-10-08T20:24:03.291Z,7.20
2022-10-08T20:26:32.547Z,7.30
2022-10-08T20:29:01.366Z,7.40
2022-10-08T20:31:33.973Z,7.50
2022-10-08T20:34:06.079Z,7.60
2022-10-08T20:36:34.048Z,7.70
2022-10-08T20:39:01.077Z,7.90
2022-10-08T20:41:31.286Z,8.00
2022-10-08T20:44:03.274Z,8.00
2022-10-08T20:46:31.566Z,8.10
2022-10-08T20:48:58.771Z,8.10
2022-10-08T20:51:26.751Z,8.10
2022-10-08T20:53:59.669Z,8.10
2022-10-08T20:56:27.726Z,8.10
2022-10-08T20:58:55.044Z,8.10
2022-10-08T21:01:33.498Z,8.10
2022-10-08T21:04:01.374Z,8.10
2022-10-08T21:06:30.703Z,8.10
2022-10-08T21:08:59.104Z,8.10
2022-10-08T21:11:28.939Z,8.00
2022-10-08T21:13:56.540Z,8.00
2022-10-08T21:16:26.274Z,8.00
2022-10-08T21:19:00.179Z,6.40
2022-10-08T21:21:28.222Z,7.80
2022-10-08T21:23:55.446Z,7.80
2022-10-08T21:26:30.431Z,7.70
2022-10-08T21:28:59.398Z,7.60
2022-10-08T21:31:27.510Z,7.60
2022-10-08T21:33:55.156Z,7.50
2022-10-08T21:36:25.505Z,7.40
2022-10-08T21:38:52.203Z,7.40
2022-10-08T21:41:20.420Z,7.40
2022-10-08T21:43:54.939Z,7.40
2022-10-08T21:46:24.417Z,7.30
2022-10-08T21:48:58.016Z,7.30
2022-10-08T21:51:25.292Z,7.30
2022-10-08T21:53:55.647Z,7.30
2022-10-08T21:56:27.866Z,7.20
2022-10-08T21:58:57.314Z,7.20
2022-10-08T22:01:36.593Z,7.20
2022-10-08T22:04:13.241Z,7.10
2022-10-08T22:06:42.162Z,7.10
2022-10-08T22:09:15.666Z,7.10
2022-10-08T22:11:42.449Z,7.00
2022-10-08T22:14:09.635Z,7.00
2022-10-08T22:16:36.665Z,7.00
2022-10-08T22:19:04.198Z,6.90
2022-10-08T22:21:31.423Z,6.90
2022-10-08T22:23:58.055Z,6.90
2022-10-08T22:26:36.114Z,6.90
2022-10-08T22:29:04.633Z,6.80
2022-10-08T22:31:31.741Z,6.80
2022-10-08T22:33:59.038Z,6.70
2022-10-08T22:36:28.277Z,6.70
2022-10-08T22:38:56.391Z,6.60
2022-10-08T22:41:28.796Z,6.60
2022-10-08T22:43:55.962Z,6.50
2022-10-08T22:46:28.608Z,6.50
2022-10-08T22:49:00.280Z,6.40
2022-10-08T22:51:30.342Z,6.40
2022-10-08T22:53:57.226Z,6.40
2022-10-08T22:56:26.870Z,6.30
2022-10-08T22:58:53.967Z,6.20
2022-10-08T23:01:23.369Z,6.20
2022-10-08T23:03:50.125Z,6.20
2022-10-08T23:06:18.012Z,6.20
2022-10-08T23:08:46.635Z,6.10
2022-10-08T23:11:14.995Z,6.10
2022-10-08T23:13:45.409Z,6.10
2022-10-08T23:16:14.037Z,6.10
2022-10-08T23:18:44.511Z,6.10
2022-10-08T23:21:13.507Z,6.10
2022-10-08T23:23:40.831Z,6.00
2022-10-08T23:26:09.131Z,6.00
2022-10-08T23:28:38.292Z,5.90
2022-10-08T23:31:12.479Z,5.90
2022-10-08T23:33:42.361Z,5.90
2022-10-08T23:36:11.281Z,5.80
2022-10-08T23:38:38.638Z,5.80
2022-10-08T23:41:07.359Z,5.70
2022-10-08T23:43:53.605Z,5.70
2022-10-08T23:46:23.766Z,5.60
2022-10-08T23:48:51.207Z,5.70
2022-10-08T23:51:19.727Z,5.60
2022-10-08T23:53:47.020Z,5.60
2022-10-08T23:56:13.919Z,5.50
2022-10-08T23:58:41.606Z,5.60
